Time;durP1;ratioP1;P1;durP2;ratioP2;P2;SDS_P1;SDS_P2;PMS_P1;PMS_P2;Temp;Humidity;BMP_temperature;BMP_pressure;BME280_temperature;BME280_humidity;BME280_pressure;Samples;Min_cycle;Max_cycle;Signal;HPM_P1;HPM_P2
2023/08/29 00:02:17;;;;;;;13.63;12.52;;;21.60;99.90;;;;;;5158711;28;20018;-72
2023/08/29 00:04:48;;;;;;;15.02;13.93;;;21.50;99.90;;;;;;5165081;28;20026;-72
2023/08/29 00:07:19;;;;;;;16.05;14.75;;;21.40;99.90;;;;;;5150872;28;20490;-76
2023/08/29 00:09:52;;;;;;;15.15;13.88;;;21.40;99.90;;;;;;5145383;28;20158;-73
2023/08/29 00:12:23;;;;;;;15.52;14.23;;;21.50;99.90;;;;;;5145132;28;20039;-72
2023/08/29 00:14:56;;;;;;;14.02;12.93;;;21.30;99.90;;;;;;5145273;28;20033;-72
2023/08/29 00:17:27;;;;;;;13.80;12.80;;;21.40;99.90;;;;;;5145295;28;20022;-71
2023/08/29 00:19:58;;;;;;;14.75;13.55;;;21.30;99.90;;;;;;5145297;28;20081;-71
2023/08/29 00:22:29;;;;;;;15.45;14.07;;;21.40;99.90;;;;;;5145177;28;20061;-71
2023/08/29 00:25:00;;;;;;;15.18;14.02;;;21.30;99.90;;;;;;5145208;28;20034;-73
2023/08/29 00:27:31;;;;;;;14.20;13.23;;;21.30;99.90;;;;;;5145000;28;20023;-72
2023/08/29 00:30:03;;;;;;;15.05;13.60;;;21.40;99.90;;;;;;5145298;28;20102;-71
2023/08/29 00:32:33;;;;;;;15.77;14.43;;;21.30;99.90;;;;;;5145232;28;20177;-71
2023/08/29 00:35:05;;;;;;;13.70;12.57;;;21.30;99.90;;;;;;5145234;28;20114;-71
2023/08/29 00:37:35;;;;;;;13.57;12.57;;;21.40;99.90;;;;;;5145165;28;20031;-72
2023/08/29 00:40:07;;;;;;;13.82;12.63;;;21.30;99.90;;;;;;5144407;28;20027;-72
2023/08/29 00:42:38;;;;;;;13.73;12.50;;;21.40;99.90;;;;;;5144663;28;20073;-71
2023/08/29 00:45:09;;;;;;;14.05;13.05;;;21.30;99.90;;;;;;5144396;28;20035;-71
2023/08/29 00:47:40;;;;;;;13.70;12.73;;;21.30;99.90;;;;;;5145035;28;20059;-71
2023/08/29 00:50:11;;;;;;;13.52;12.40;;;21.30;99.90;;;;;;5144840;28;20375;-73
2023/08/29 00:52:42;;;;;;;13.80;12.55;;;21.10;99.90;;;;;;5144971;28;20045;-72
2023/08/29 00:55:14;;;;;;;14.48;13.38;;;21.30;99.90;;;;;;5146813;28;20395;-75
2023/08/29 00:57:45;;;;;;;14.50;13.30;;;21.20;99.90;;;;;;5148980;28;20042;-71
2023/08/29 01:00:16;;;;;;;12.98;11.98;;;21.30;99.90;;;;;;5149023;28;20027;-71
2023/08/29 01:02:46;;;;;;;12.65;11.52;;;21.20;99.90;;;;;;5159776;28;20038;-71
2023/08/29 01:05:17;;;;;;;12.65;11.75;;;21.40;99.90;;;;;;5169056;28;20030;-72
2023/08/29 01:07:51;;;;;;;14.05;12.95;;;21.10;99.90;;;;;;5168813;28;20088;-71
2023/08/29 01:10:36;;;;;;;13.55;12.45;;;20.90;99.90;;;;;;5168834;28;20092;-72
2023/08/29 01:13:15;;;;;;;12.75;11.55;;;21.00;99.90;;;;;;5168737;28;20034;-76
2023/08/29 01:15:51;;;;;;;12.80;11.63;;;21.00;99.90;;;;;;5168793;28;20022;-72
2023/08/29 01:18:24;;;;;;;13.93;12.68;;;21.00;99.90;;;;;;5168716;28;20093;-74
2023/08/29 01:21:02;;;;;;;14.00;12.90;;;20.90;99.90;;;;;;5167444;28;20088;-71
2023/08/29 01:23:54;;;;;;;14.43;13.43;;;20.90;99.90;;;;;;5168509;28;20030;-71
2023/08/29 01:26:26;;;;;;;15.15;13.98;;;20.80;99.90;;;;;;5168402;28;20494;-72
2023/08/29 01:28:59;;;;;;;14.32;13.18;;;20.80;99.90;;;;;;5168331;28;20518;-71
2023/08/29 01:31:32;;;;;;;12.95;12.05;;;20.80;99.90;;;;;;5168098;28;20062;-72
2023/08/29 01:34:03;;;;;;;11.68;10.68;;;20.80;99.90;;;;;;5168320;28;20034;-72
2023/08/29 01:36:39;;;;;;;12.05;11.05;;;20.80;99.90;;;;;;5167666;28;20018;-71
2023/08/29 01:39:10;;;;;;;11.63;10.82;;;20.80;99.90;;;;;;5167644;28;20381;-72
2023/08/29 01:41:41;;;;;;;12.10;11.07;;;20.80;99.90;;;;;;5166776;28;20049;-72
2023/08/29 01:44:12;;;;;;;13.05;11.95;;;20.80;99.90;;;;;;5166863;28;20019;-71
2023/08/29 01:46:43;;;;;;;13.68;12.68;;;20.80;99.90;;;;;;5167030;28;20589;-72
2023/08/29 01:49:13;;;;;;;13.00;11.88;;;20.80;99.90;;;;;;5166651;28;20034;-72
2023/08/29 01:51:44;;;;;;;11.75;10.85;;;21.00;99.90;;;;;;5166985;28;20038;-74
2023/08/29 01:54:15;;;;;;;12.55;11.68;;;21.00;99.90;;;;;;5167408;28;20050;-71
2023/08/29 01:56:47;;;;;;;13.50;12.50;;;21.00;99.90;;;;;;5167800;28;20081;-71
2023/08/29 01:59:18;;;;;;;12.35;11.25;;;20.80;99.90;;;;;;5167985;28;20022;-71
2023/08/29 02:01:50;;;;;;;13.77;12.77;;;20.80;99.90;;;;;;5168092;28;20031;-71
2023/08/29 02:04:21;;;;;;;12.48;11.18;;;20.80;99.90;;;;;;5167801;28;20031;-71
2023/08/29 02:06:52;;;;;;;12.20;11.30;;;20.80;99.90;;;;;;5167025;28;20041;-71
2023/08/29 02:09:23;;;;;;;12.07;11.10;;;20.80;99.90;;;;;;5167745;28;20391;-71
2023/08/29 02:11:55;;;;;;;11.93;10.82;;;20.90;99.90;;;;;;5167607;28;20034;-71
2023/08/29 02:14:26;;;;;;;13.45;12.35;;;20.90;99.90;;;;;;5167677;28;20035;-71
2023/08/29 02:16:57;;;;;;;12.15;11.25;;;20.90;99.90;;;;;;5167514;28;20025;-72
2023/08/29 02:19:28;;;;;;;11.68;10.77;;;20.80;99.90;;;;;;5167432;28;20068;-71
2023/08/29 02:21:59;;;;;;;12.23;11.20;;;20.90;99.90;;;;;;5166239;28;20025;-71
2023/08/29 02:24:30;;;;;;;12.65;11.65;;;20.90;99.90;;;;;;5166177;28;20478;-71
2023/08/29 02:27:01;;;;;;;12.55;11.63;;;20.90;99.90;;;;;;5167213;28;20026;-72
2023/08/29 02:29:32;;;;;;;13.30;12.13;;;20.90;99.90;;;;;;5167253;28;20105;-71
2023/08/29 02:32:03;;;;;;;14.40;13.40;;;20.70;99.90;;;;;;5164766;28;20154;-72
2023/08/29 02:34:34;;;;;;;12.45;11.13;;;20.50;99.90;;;;;;5166653;28;20046;-72
2023/08/29 02:37:05;;;;;;;11.52;10.32;;;20.60;99.90;;;;;;5164517;28;20106;-71
2023/08/29 02:39:36;;;;;;;11.57;10.57;;;20.60;99.90;;;;;;5165811;28;20019;-70
2023/08/29 02:42:07;;;;;;;11.93;10.85;;;20.60;99.90;;;;;;5164677;28;20045;-75
2023/08/29 02:44:38;;;;;;;10.35;9.45;;;20.70;99.90;;;;;;5166976;28;20022;-76
2023/08/29 02:47:09;;;;;;;11.02;10.23;;;20.70;99.90;;;;;;5166913;28;20101;-76
2023/08/29 02:49:39;;;;;;;11.63;10.80;;;20.60;99.90;;;;;;5166773;28;20085;-71
2023/08/29 02:52:10;;;;;;;12.57;11.68;;;20.80;99.90;;;;;;5166807;28;20041;-71
2023/08/29 02:54:41;;;;;;;12.60;11.50;;;20.70;99.90;;;;;;5166774;28;20102;-71
2023/08/29 02:57:12;;;;;;;12.38;11.38;;;20.60;99.90;;;;;;5166713;28;20025;-72
2023/08/29 02:59:43;;;;;;;13.57;11.82;;;20.70;99.90;;;;;;5165782;28;20027;-75
2023/08/29 03:02:14;;;;;;;10.85;9.85;;;20.70;99.90;;;;;;5166736;28;20030;-72
2023/08/29 03:04:45;;;;;;;12.48;11.35;;;20.80;99.90;;;;;;5166741;28;20441;-71
2023/08/29 03:07:16;;;;;;;11.65;10.65;;;20.80;99.90;;;;;;5166540;28;20368;-71
2023/08/29 03:09:47;;;;;;;11.40;10.32;;;20.90;99.90;;;;;;5166674;28;20065;-71
2023/08/29 03:12:17;;;;;;;11.55;10.75;;;20.80;99.90;;;;;;5166328;28;20434;-71
2023/08/29 03:14:53;;;;;;;10.68;9.88;;;20.70;99.90;;;;;;5166536;28;20467;-71
2023/08/29 03:17:25;;;;;;;11.45;10.55;;;20.70;99.90;;;;;;5165550;28;20030;-72
2023/08/29 03:19:56;;;;;;;11.20;10.25;;;20.60;99.90;;;;;;5166339;28;20022;-71
2023/08/29 03:22:27;;;;;;;11.90;10.80;;;20.70;99.90;;;;;;5166319;28;20100;-71
2023/08/29 03:24:58;;;;;;;10.32;9.52;;;20.50;99.90;;;;;;5164965;28;20033;-74
2023/08/29 03:27:28;;;;;;;9.10;8.20;;;20.50;99.90;;;;;;5165318;28;20049;-73
2023/08/29 03:29:59;;;;;;;10.32;9.52;;;20.50;99.90;;;;;;5165612;28;20023;-72
2023/08/29 03:32:30;;;;;;;12.50;11.40;;;20.50;99.90;;;;;;5164751;28;20117;-70
2023/08/29 03:35:01;;;;;;;12.93;11.43;;;20.70;99.90;;;;;;5166070;28;20495;-72
2023/08/29 03:37:32;;;;;;;13.27;12.10;;;20.60;99.90;;;;;;5165941;28;20486;-70
2023/08/29 03:40:03;;;;;;;12.57;11.57;;;20.60;99.90;;;;;;5165926;28;20101;-74
2023/08/29 03:42:34;;;;;;;12.45;11.45;;;20.60;99.90;;;;;;5164694;28;20029;-71
2023/08/29 03:45:06;;;;;;;15.05;11.95;;;20.70;99.90;;;;;;5165849;28;20022;-73
2023/08/29 03:47:39;;;;;;;12.50;11.48;;;20.60;99.90;;;;;;5165717;28;20038;-71
2023/08/29 03:50:10;;;;;;;14.20;11.25;;;20.70;99.90;;;;;;5165772;28;20037;-71
2023/08/29 03:52:41;;;;;;;15.55;10.85;;;20.80;99.90;;;;;;5165640;28;20031;-73
2023/08/29 03:55:12;;;;;;;10.73;9.60;;;20.70;99.90;;;;;;5165562;28;20065;-71
2023/08/29 03:57:43;;;;;;;10.45;9.55;;;20.70;99.90;;;;;;5165509;28;20034;-71
2023/08/29 04:00:14;;;;;;;11.05;10.15;;;20.80;99.90;;;;;;5165562;28;20030;-75
2023/08/29 04:02:45;;;;;;;10.00;9.20;;;20.90;99.90;;;;;;5165538;28;20109;-74
2023/08/29 04:05:17;;;;;;;11.00;9.95;;;20.80;99.90;;;;;;5165500;28;20514;-75
2023/08/29 04:07:48;;;;;;;10.73;9.75;;;20.90;99.90;;;;;;5165465;28;20050;-74
2023/08/29 04:10:19;;;;;;;11.00;10.13;;;20.80;99.90;;;;;;5165577;28;20073;-70
2023/08/29 04:12:50;;;;;;;11.45;10.55;;;20.90;99.90;;;;;;5164310;28;20043;-76
2023/08/29 04:15:21;;;;;;;10.98;9.98;;;20.90;99.90;;;;;;5165291;28;20397;-71
2023/08/29 04:17:51;;;;;;;10.60;9.80;;;20.90;99.90;;;;;;5165360;28;20454;-71
2023/08/29 04:20:23;;;;;;;12.13;11.20;;;20.90;99.90;;;;;;5164045;28;20540;-71
2023/08/29 04:22:54;;;;;;;12.32;11.13;;;21.00;99.90;;;;;;5164295;28;20065;-70
2023/08/29 04:25:26;;;;;;;14.20;13.07;;;21.00;99.90;;;;;;5165046;28;20042;-71
2023/08/29 04:27:57;;;;;;;12.90;11.90;;;20.90;99.90;;;;;;5163870;28;20699;-71
2023/08/29 04:30:29;;;;;;;12.15;10.95;;;21.10;99.90;;;;;;5163382;28;20027;-71
2023/08/29 04:33:00;;;;;;;12.60;11.32;;;21.10;99.90;;;;;;5163565;28;20088;-70
2023/08/29 04:35:31;;;;;;;12.80;11.77;;;21.10;99.90;;;;;;5163729;28;20054;-71
2023/08/29 04:38:02;;;;;;;12.25;11.23;;;21.10;99.90;;;;;;5163686;28;20053;-71
2023/08/29 04:40:35;;;;;;;13.07;11.98;;;21.10;99.90;;;;;;5163901;28;20026;-71
2023/08/29 04:43:06;;;;;;;12.45;11.25;;;21.10;99.90;;;;;;5165078;28;20061;-70
2023/08/29 04:45:36;;;;;;;12.75;11.63;;;21.40;99.90;;;;;;5165065;28;20031;-70
2023/08/29 04:48:07;;;;;;;13.25;12.07;;;21.50;99.90;;;;;;5164918;28;20038;-71
2023/08/29 04:50:39;;;;;;;12.50;11.45;;;21.50;99.90;;;;;;5165080;28;20062;-75
2023/08/29 04:53:10;;;;;;;11.73;10.80;;;21.50;99.90;;;;;;5164858;28;20394;-71
2023/08/29 04:55:41;;;;;;;11.77;10.77;;;21.50;99.90;;;;;;5164815;28;20019;-71
2023/08/29 04:58:12;;;;;;;11.70;10.65;;;21.60;99.90;;;;;;5164774;28;20026;-71
2023/08/29 05:00:43;;;;;;;11.90;11.00;;;21.80;99.90;;;;;;5164368;28;20038;-71
2023/08/29 05:03:14;;;;;;;12.73;11.63;;;21.70;99.90;;;;;;5164731;28;20480;-71
2023/08/29 05:05:46;;;;;;;11.45;10.50;;;22.00;99.90;;;;;;5164861;28;20746;-71
2023/08/29 05:08:17;;;;;;;11.13;10.13;;;22.10;99.90;;;;;;5164562;28;20026;-71
2023/08/29 05:10:48;;;;;;;10.82;9.93;;;22.30;99.90;;;;;;5164763;28;20023;-70
2023/08/29 05:13:19;;;;;;;11.43;9.52;;;22.40;99.90;;;;;;5164248;28;20548;-74
2023/08/29 05:15:50;;;;;;;9.85;8.85;;;22.40;99.90;;;;;;5164174;28;20022;-71
2023/08/29 05:18:21;;;;;;;9.98;9.05;;;22.70;99.90;;;;;;5163746;28;20719;-71
2023/08/29 05:20:52;;;;;;;9.23;8.52;;;22.80;99.90;;;;;;5163444;28;20062;-74
2023/08/29 05:23:23;;;;;;;9.48;8.77;;;23.10;99.90;;;;;;5163417;28;20029;-72
2023/08/29 05:25:54;;;;;;;9.55;8.73;;;23.00;99.90;;;;;;5163184;28;20034;-72
2023/08/29 05:28:25;;;;;;;10.07;9.18;;;23.20;99.90;;;;;;5163306;28;20026;-73
2023/08/29 05:30:56;;;;;;;10.10;9.27;;;23.30;99.90;;;;;;5163185;28;20651;-71
2023/08/29 05:33:26;;;;;;;11.32;10.20;;;23.50;99.90;;;;;;5163964;28;20550;-71
2023/08/29 05:35:57;;;;;;;11.00;10.02;;;23.60;99.90;;;;;;5164049;28;20070;-74
2023/08/29 05:38:28;;;;;;;10.73;9.82;;;23.90;99.90;;;;;;5162030;28;20029;-71
2023/08/29 05:40:59;;;;;;;10.40;9.50;;;23.90;99.90;;;;;;5163869;28;20418;-71
2023/08/29 05:43:30;;;;;;;11.48;10.38;;;24.20;99.90;;;;;;5166693;28;20595;-71
2023/08/29 05:46:02;;;;;;;11.20;10.23;;;24.40;99.90;;;;;;5166761;28;20034;-71
2023/08/29 05:48:33;;;;;;;10.63;9.73;;;24.40;99.90;;;;;;5167494;28;20022;-71
2023/08/29 05:51:04;;;;;;;10.77;9.50;;;24.40;99.90;;;;;;5167645;28;20097;-71
2023/08/29 05:53:35;;;;;;;12.63;9.68;;;24.50;99.90;;;;;;5166477;28;20114;-72
2023/08/29 05:56:06;;;;;;;10.45;9.55;;;24.40;99.90;;;;;;5166323;28;20034;-72
2023/08/29 05:58:37;;;;;;;9.90;8.55;;;24.50;99.90;;;;;;5166364;28;20030;-71
2023/08/29 06:01:09;;;;;;;13.30;8.90;;;24.50;99.90;;;;;;5166733;28;20108;-74
2023/08/29 06:03:39;;;;;;;9.68;8.68;;;24.70;99.90;;;;;;5167656;28;20034;-75
2023/08/29 06:06:10;;;;;;;9.38;8.23;;;24.70;99.90;;;;;;5166447;28;20030;-72
2023/08/29 06:08:41;;;;;;;10.38;8.20;;;25.00;99.90;;;;;;5166621;28;20027;-73
2023/08/29 06:11:13;;;;;;;9.15;8.30;;;24.90;99.90;;;;;;5167069;28;20090;-71
2023/08/29 06:13:44;;;;;;;11.23;8.45;;;25.10;99.90;;;;;;5165792;28;20117;-72
2023/08/29 06:16:15;;;;;;;15.13;8.77;;;25.30;99.90;;;;;;5167004;28;20172;-71
2023/08/29 06:18:47;;;;;;;8.88;7.93;;;25.30;99.90;;;;;;5166836;28;20561;-72
2023/08/29 06:21:19;;;;;;;9.07;8.25;;;25.40;99.90;;;;;;5167200;28;20022;-71
2023/08/29 06:23:50;;;;;;;8.65;7.85;;;25.50;99.90;;;;;;5161736;28;20026;-75
2023/08/29 06:26:21;;;;;;;10.43;8.63;;;25.50;99.90;;;;;;5163851;28;20038;-77
2023/08/29 06:28:51;;;;;;;10.25;8.55;;;25.70;99.90;;;;;;5167268;28;20022;-77
2023/08/29 06:31:23;;;;;;;9.52;8.73;;;25.80;99.90;;;;;;5165697;28;20483;-71
2023/08/29 06:33:54;;;;;;;10.75;9.25;;;25.90;99.90;;;;;;5167256;28;20029;-71
2023/08/29 06:36:25;;;;;;;11.40;8.75;;;25.80;99.90;;;;;;5167430;28;20501;-71
2023/08/29 06:38:56;;;;;;;10.50;9.65;;;25.80;99.90;;;;;;5167250;28;20037;-71
2023/08/29 06:41:29;;;;;;;11.23;10.10;;;26.00;99.90;;;;;;5165767;28;20027;-78
2023/08/29 06:44:00;;;;;;;11.25;10.15;;;26.00;99.90;;;;;;5167019;28;20022;-75
2023/08/29 06:46:31;;;;;;;11.35;10.15;;;26.30;99.90;;;;;;5165620;28;20026;-71
2023/08/29 06:49:02;;;;;;;10.05;8.02;;;26.40;99.90;;;;;;5166388;28;20496;-72
2023/08/29 06:51:33;;;;;;;10.15;9.13;;;26.50;99.90;;;;;;5166452;28;20026;-71
2023/08/29 06:54:04;;;;;;;9.18;8.05;;;26.60;99.90;;;;;;5166854;28;20035;-71
2023/08/29 06:56:35;;;;;;;10.35;9.35;;;26.80;99.90;;;;;;5166725;28;20156;-72
2023/08/29 06:59:06;;;;;;;9.82;8.93;;;27.00;99.90;;;;;;5166679;28;20109;-72
2023/08/29 07:01:39;;;;;;;15.05;10.43;;;27.00;99.90;;;;;;5166527;28;20031;-72
2023/08/29 07:04:11;;;;;;;14.43;13.23;;;27.20;99.90;;;;;;5165292;28;20514;-71
2023/08/29 07:06:52;;;;;;;17.45;16.10;;;26.90;99.90;;;;;;5165312;28;20487;-71
2023/08/29 07:09:23;;;;;;;18.63;17.17;;;26.90;99.90;;;;;;5165099;28;20395;-73
2023/08/29 07:11:54;;;;;;;17.13;15.90;;;26.80;99.90;;;;;;5165025;28;20034;-71
2023/08/29 07:14:25;;;;;;;15.68;14.25;;;26.90;99.90;;;;;;5163723;28;20647;-72
2023/08/29 07:16:56;;;;;;;12.88;11.90;;;26.90;99.90;;;;;;5165142;28;20038;-72
2023/08/29 07:19:28;;;;;;;12.80;11.80;;;27.10;99.90;;;;;;5165268;28;20673;-72
2023/08/29 07:21:59;;;;;;;12.38;11.27;;;27.10;99.90;;;;;;5166106;28;20027;-72
2023/08/29 07:24:30;;;;;;;11.38;10.48;;;27.30;99.90;;;;;;5166272;28;20077;-72
2023/08/29 07:27:01;;;;;;;9.95;9.02;;;27.40;99.90;;;;;;5165944;28;20057;-72
2023/08/29 07:29:32;;;;;;;9.35;8.43;;;27.30;99.90;;;;;;5164842;28;20022;-72
2023/08/29 07:32:04;;;;;;;9.43;8.57;;;27.30;99.90;;;;;;5165688;28;20043;-72
2023/08/29 07:34:36;;;;;;;9.15;7.97;;;27.40;99.90;;;;;;5164939;28;20038;-72
2023/08/29 07:37:06;;;;;;;8.98;7.68;;;27.50;99.90;;;;;;5165914;28;20030;-72
2023/08/29 07:39:37;;;;;;;10.55;7.35;;;27.80;99.90;;;;;;5165892;28;20503;-77
2023/08/29 07:42:08;;;;;;;9.38;8.30;;;27.70;99.90;;;;;;5164681;28;20034;-71
2023/08/29 07:44:39;;;;;;;9.73;8.85;;;27.70;99.90;;;;;;5165971;28;20076;-72
2023/08/29 07:47:10;;;;;;;11.98;10.98;;;28.00;99.90;;;;;;5164850;28;20035;-75
2023/08/29 07:49:41;;;;;;;11.27;10.18;;;28.20;99.90;;;;;;5166130;28;20018;-71
2023/08/29 07:52:12;;;;;;;10.90;9.88;;;28.00;99.90;;;;;;5165898;28;20471;-72
2023/08/29 07:54:43;;;;;;;10.98;9.82;;;28.10;99.90;;;;;;5164078;28;20023;-77
2023/08/29 07:57:13;;;;;;;11.05;9.90;;;28.00;99.90;;;;;;5158421;28;20545;-73
2023/08/29 07:59:44;;;;;;;11.00;9.55;;;28.00;99.90;;;;;;5163562;28;20062;-72
2023/08/29 08:02:15;;;;;;;8.57;7.78;;;28.20;99.90;;;;;;5159550;28;20470;-73
2023/08/29 08:04:46;;;;;;;9.98;9.18;;;28.00;99.90;;;;;;5143927;28;20038;-74
2023/08/29 08:07:17;;;;;;;12.10;9.60;;;28.20;99.90;;;;;;5143497;28;20083;-72
2023/08/29 08:09:48;;;;;;;9.05;7.38;;;28.40;99.90;;;;;;5143993;28;20363;-74
2023/08/29 08:12:18;;;;;;;8.60;6.90;;;28.30;99.90;;;;;;5144038;28;20035;-72
2023/08/29 08:14:52;;;;;;;9.13;7.00;;;28.40;99.90;;;;;;5143996;28;20034;-76
2023/08/29 08:17:23;;;;;;;7.50;6.82;;;28.70;99.90;;;;;;5143931;28;20069;-76
2023/08/29 08:19:55;;;;;;;12.68;5.97;;;28.60;99.90;;;;;;5143855;28;20034;-72
2023/08/29 08:22:26;;;;;;;12.52;6.93;;;28.60;99.90;;;;;;5145159;28;20058;-73
2023/08/29 08:24:57;;;;;;;7.10;6.40;;;28.70;99.90;;;;;;5145233;28;20062;-75
2023/08/29 08:27:29;;;;;;;8.55;6.18;;;28.90;99.90;;;;;;5144996;28;20019;-74
2023/08/29 08:30:00;;;;;;;9.00;5.90;;;28.80;99.90;;;;;;5145141;28;20506;-73
2023/08/29 08:32:31;;;;;;;22.17;6.43;;;28.60;99.90;;;;;;5144698;28;20047;-76
2023/08/29 08:35:06;;;;;;;8.73;6.78;;;28.80;99.90;;;;;;5143818;28;20093;-73
2023/08/29 08:37:37;;;;;;;6.20;5.60;;;28.90;99.90;;;;;;5144991;28;20031;-72
2023/08/29 08:40:11;;;;;;;6.22;5.63;;;29.20;99.90;;;;;;5144977;28;20058;-75
2023/08/29 08:42:44;;;;;;;6.28;5.78;;;29.20;99.90;;;;;;5144860;28;20443;-73
2023/08/29 08:45:16;;;;;;;7.10;6.13;;;29.20;99.90;;;;;;5144961;28;20061;-74
2023/08/29 08:47:47;;;;;;;6.65;6.13;;;29.20;99.90;;;;;;5144835;28;20057;-73
2023/08/29 08:50:18;;;;;;;7.07;6.35;;;29.30;99.90;;;;;;5144612;28;20035;-76
2023/08/29 08:52:51;;;;;;;7.45;6.70;;;29.40;99.90;;;;;;5143433;28;20086;-75
2023/08/29 08:55:22;;;;;;;8.02;6.53;;;29.40;99.90;;;;;;5144780;28;20480;-73
2023/08/29 08:57:53;;;;;;;10.98;6.10;;;29.50;99.90;;;;;;5144620;28;20078;-74
2023/08/29 09:00:24;;;;;;;7.50;5.53;;;29.70;99.90;;;;;;5144587;28;20023;-73
2023/08/29 09:02:57;;;;;;;6.53;5.85;;;29.50;99.90;;;;;;5143281;28;20391;-73
2023/08/29 09:05:28;;;;;;;6.65;5.63;;;29.50;99.90;;;;;;5143273;28;20031;-76
2023/08/29 09:07:59;;;;;;;7.07;5.85;;;29.70;99.90;;;;;;5143108;28;20113;-72
2023/08/29 09:10:35;;;;;;;8.32;5.60;;;29.90;99.90;;;;;;5143273;28;20019;-76
2023/08/29 09:13:13;;;;;;;6.60;6.00;;;29.90;99.90;;;;;;5143070;28;20097;-72
2023/08/29 09:15:46;;;;;;;6.80;6.20;;;30.00;99.90;;;;;;5143945;28;20431;-77
2023/08/29 09:18:32;;;;;;;8.00;6.60;;;30.00;99.90;;;;;;5148483;28;20086;-78
2023/08/29 09:21:04;;;;;;;10.05;6.15;;;30.10;99.90;;;;;;5148484;28;20102;-73
2023/08/29 09:23:39;;;;;;;6.55;5.43;;;30.20;99.90;;;;;;5147416;28;20550;-77
2023/08/29 09:26:12;;;;;;;7.32;4.82;;;30.20;99.90;;;;;;5148238;28;20029;-73
2023/08/29 09:28:43;;;;;;;6.90;5.20;;;30.20;99.90;;;;;;5148293;28;20026;-73
2023/08/29 09:31:16;;;;;;;6.53;5.25;;;30.40;99.90;;;;;;5146654;28;20039;-72
2023/08/29 09:33:47;;;;;;;6.85;4.80;;;30.40;99.90;;;;;;5148083;28;20070;-74
2023/08/29 09:36:20;;;;;;;7.43;5.15;;;30.30;99.90;;;;;;5148016;28;20019;-74
2023/08/29 09:38:51;;;;;;;5.72;4.90;;;30.30;99.90;;;;;;5148070;28;20456;-74
2023/08/29 09:41:22;;;;;;;4.40;4.00;;;30.50;99.90;;;;;;5147799;28;20102;-74
2023/08/29 09:43:53;;;;;;;7.18;4.85;;;30.60;99.90;;;;;;5147536;28;20085;-74
2023/08/29 09:46:29;;;;;;;12.40;7.10;;;30.70;99.90;;;;;;5146117;28;20062;-73
2023/08/29 09:49:00;;;;;;;8.70;8.07;;;30.30;99.90;;;;;;5147226;28;20122;-72
2023/08/29 09:51:33;;;;;;;8.05;7.18;;;30.60;99.90;;;;;;5147240;28;20027;-74
2023/08/29 09:54:08;;;;;;;6.35;5.85;;;30.70;99.90;;;;;;5147351;28;20066;-75
2023/08/29 09:56:42;;;;;;;5.55;5.05;;;30.80;99.90;;;;;;5147139;28;20026;-77
2023/08/29 09:59:17;;;;;;;7.43;5.00;;;31.10;99.90;;;;;;5147257;28;20101;-73
2023/08/29 10:01:49;;;;;;;5.18;4.25;;;31.00;99.90;;;;;;5147527;28;20086;-72
2023/08/29 10:04:23;;;;;;;5.70;4.95;;;31.10;99.90;;;;;;5147633;28;20035;-73
2023/08/29 10:06:57;;;;;;;5.68;4.10;;;31.20;99.90;;;;;;5147537;28;20147;-72
2023/08/29 10:09:30;;;;;;;6.63;5.00;;;31.30;99.90;;;;;;5147825;28;20088;-73
2023/08/29 10:12:02;;;;;;;5.00;4.55;;;31.30;99.90;;;;;;5147663;28;20121;-72
2023/08/29 10:14:34;;;;;;;5.13;4.72;;;31.30;99.90;;;;;;5147531;28;20027;-73
2023/08/29 10:17:06;;;;;;;12.15;5.20;;;31.40;99.90;;;;;;5147624;28;20418;-74
2023/08/29 10:19:38;;;;;;;5.25;4.55;;;31.50;99.90;;;;;;5147940;28;20026;-73
2023/08/29 10:22:10;;;;;;;5.28;4.38;;;31.40;99.90;;;;;;5147542;28;20126;-76
2023/08/29 10:24:44;;;;;;;8.00;4.72;;;31.50;99.90;;;;;;5145186;28;20037;-73
2023/08/29 10:27:14;;;;;;;7.00;5.03;;;31.40;99.90;;;;;;5146462;28;20022;-74
2023/08/29 10:29:45;;;;;;;7.10;5.95;;;31.60;99.90;;;;;;5147412;28;20035;-77
2023/08/29 10:32:17;;;;;;;7.47;5.82;;;31.60;99.90;;;;;;5146844;28;20054;-73
2023/08/29 10:34:50;;;;;;;9.38;6.20;;;31.60;99.90;;;;;;5147011;28;20045;-70
2023/08/29 10:37:22;;;;;;;9.45;7.40;;;31.70;99.90;;;;;;5146990;28;20117;-70
2023/08/29 10:39:53;;;;;;;7.22;6.63;;;31.60;99.90;;;;;;5147036;28;20468;-75
2023/08/29 10:42:24;;;;;;;8.13;6.78;;;31.80;99.90;;;;;;5147035;28;20026;-71
2023/08/29 10:44:55;;;;;;;7.32;6.70;;;31.80;99.90;;;;;;5147000;28;20030;-71
2023/08/29 10:47:27;;;;;;;8.18;7.55;;;31.70;99.90;;;;;;5146926;28;20033;-70
2023/08/29 10:50:03;;;;;;;7.80;6.25;;;31.80;99.90;;;;;;5146873;28;20023;-70
2023/08/29 10:52:46;;;;;;;8.20;7.40;;;31.70;99.90;;;;;;5146661;28;20101;-70
2023/08/29 10:55:21;;;;;;;6.82;5.50;;;31.80;99.90;;;;;;5146348;28;20018;-70
2023/08/29 10:57:52;;;;;;;7.65;6.95;;;31.80;99.90;;;;;;5146329;28;20027;-73
2023/08/29 11:00:51;;;;;;;9.95;6.20;;;32.00;99.90;;;;;;5146533;28;20397;-76
2023/08/29 11:03:45;;;;;;;8.65;6.18;;;32.00;99.90;;;;;;5146395;28;20086;-70
2023/08/29 11:06:23;;;;;;;7.05;5.82;;;31.70;99.90;;;;;;5145268;28;20062;-72
2023/08/29 11:09:17;;;;;;;6.70;6.25;;;31.70;99.90;;;;;;5143918;28;20031;-74
2023/08/29 11:12:22;;;;;;;8.38;5.60;;;31.90;99.90;;;;;;5145048;28;20030;-71
2023/08/29 11:14:56;;;;;;;6.47;5.00;;;32.10;99.90;;;;;;5113351;28;20031;-70
2023/08/29 11:17:27;;;;;;;7.68;4.90;;;32.10;99.90;;;;;;5145309;28;20054;-70
2023/08/29 11:20:02;;;;;;;7.95;4.60;;;32.00;99.90;;;;;;5145307;28;20011;-74
2023/08/29 11:22:33;;;;;;;8.07;4.32;;;32.10;99.90;;;;;;5145651;28;20114;-72
2023/08/29 11:25:06;;;;;;;6.07;4.80;;;32.20;99.90;;;;;;5144906;28;20106;-76
2023/08/29 11:27:38;;;;;;;6.75;4.55;;;32.30;99.90;;;;;;5146126;28;20015;-76
2023/08/29 11:30:10;;;;;;;6.85;5.32;;;32.20;99.90;;;;;;5146084;28;20094;-71
2023/08/29 11:32:41;;;;;;;7.13;4.88;;;32.10;99.90;;;;;;5144467;28;20077;-71
2023/08/29 11:35:14;;;;;;;6.38;5.78;;;32.10;99.90;;;;;;5145931;28;20491;-74
2023/08/29 11:37:44;;;;;;;6.65;5.93;;;32.30;99.90;;;;;;5145555;28;20061;-70
2023/08/29 11:40:27;;;;;;;6.88;6.10;;;32.10;99.90;;;;;;5145347;28;20058;-71
2023/08/29 11:42:58;;;;;;;7.05;5.47;;;32.30;99.90;;;;;;5146006;28;20039;-70
2023/08/29 11:45:39;;;;;;;7.18;5.82;;;32.30;99.90;;;;;;5145819;28;20414;-71
2023/08/29 11:48:10;;;;;;;6.25;5.63;;;32.30;99.90;;;;;;5145802;28;20026;-73
2023/08/29 11:50:41;;;;;;;10.10;5.38;;;32.30;99.90;;;;;;5156740;28;20030;-70
2023/08/29 11:53:21;;;;;;;5.10;4.68;;;32.20;99.90;;;;;;5163888;28;20038;-71
2023/08/29 11:55:52;;;;;;;9.20;5.18;;;32.40;99.90;;;;;;5165619;28;20018;-71
2023/08/29 11:58:31;;;;;;;5.50;4.72;;;32.40;99.90;;;;;;5165559;28;20096;-71
2023/08/29 12:01:07;;;;;;;4.75;4.35;;;32.20;99.90;;;;;;5165474;28;20027;-70
2023/08/29 12:03:38;;;;;;;5.30;4.80;;;32.20;99.90;;;;;;5164502;28;20030;-70
2023/08/29 12:06:11;;;;;;;8.55;4.65;;;32.20;99.90;;;;;;5163017;28;20026;-71
2023/08/29 12:08:46;;;;;;;5.63;4.40;;;32.20;99.90;;;;;;5155945;28;20027;-75
2023/08/29 12:11:17;;;;;;;5.75;4.25;;;32.50;99.90;;;;;;5164100;28;20084;-76
2023/08/29 12:14:01;;;;;;;4.60;4.20;;;32.20;99.90;;;;;;5164560;28;20038;-78
2023/08/29 12:16:32;;;;;;;6.82;4.60;;;32.30;99.90;;;;;;5163972;28;20080;-76
2023/08/29 12:19:06;;;;;;;5.85;4.60;;;32.40;99.90;;;;;;5165026;28;20030;-77
2023/08/29 12:21:37;;;;;;;5.95;3.88;;;32.40;99.90;;;;;;5165195;28;20268;-73
2023/08/29 12:24:12;;;;;;;7.35;4.50;;;32.40;99.90;;;;;;5165288;28;20054;-76
2023/08/29 12:26:43;;;;;;;5.20;3.83;;;32.50;99.90;;;;;;5165127;28;20038;-75
2023/08/29 12:29:15;;;;;;;6.80;4.53;;;32.40;99.90;;;;;;5165261;28;20038;-76
2023/08/29 12:31:46;;;;;;;8.05;4.00;;;32.20;99.90;;;;;;5164851;28;20054;-78
2023/08/29 12:34:17;;;;;;;7.55;4.15;;;32.40;99.90;;;;;;5164645;28;20046;-76
2023/08/29 12:36:48;;;;;;;4.47;4.07;;;32.40;99.90;;;;;;5172499;28;20051;-70
2023/08/29 12:39:19;;;;;;;4.75;3.72;;;32.20;99.90;;;;;;5174640;28;20026;-70
2023/08/29 12:41:49;;;;;;;6.10;3.70;;;32.40;99.90;;;;;;5175512;28;20022;-76
2023/08/29 12:44:20;;;;;;;7.00;3.97;;;32.30;99.90;;;;;;5175553;28;21368;-76
2023/08/29 12:46:51;;;;;;;3.63;3.33;;;32.40;99.90;;;;;;5173955;28;20029;-75
2023/08/29 12:49:23;;;;;;;5.85;4.15;;;32.60;99.90;;;;;;5174053;28;20536;-75
2023/08/29 12:51:54;;;;;;;4.03;3.63;;;32.50;99.90;;;;;;5179117;28;20026;-71
2023/08/29 12:54:28;;;;;;;5.45;3.92;;;32.40;99.90;;;;;;5179176;28;20057;-76
2023/08/29 12:56:58;;;;;;;4.30;3.90;;;32.50;99.90;;;;;;5176219;28;20027;-71
2023/08/29 12:59:29;;;;;;;5.82;4.32;;;32.40;99.90;;;;;;5167672;28;20084;-70
2023/08/29 13:02:00;;;;;;;4.72;3.95;;;32.40;99.90;;;;;;5168970;28;20037;-73
2023/08/29 13:04:31;;;;;;;7.00;4.25;;;32.50;99.90;;;;;;5168704;28;20027;-72